Time;durP1;ratioP1;P1;durP2;ratioP2;P2;SDS_P1;SDS_P2;PMS_P1;PMS_P2;Temp;Humidity;BMP_temperature;BMP_pressure;BME280_temperature;BME280_humidity;BME280_pressure;Samples;Min_cycle;Max_cycle;Signal;HPM_P1;HPM_P2
2022/06/05 00:04:41;;;;;;;2.97;1.35;;;15.80;99.90;;;;;;20718724;28;20585;-41
2022/06/05 00:14:44;;;;;;;1.80;1.00;;;15.70;99.90;;;;;;20644713;28;21440;-41
2022/06/05 00:24:45;;;;;;;1.35;0.73;;;15.60;99.90;;;;;;20649047;28;20061;-41
2022/06/05 00:34:47;;;;;;;3.08;1.20;;;15.50;99.90;;;;;;20648919;28;20034;-41
2022/06/05 00:44:54;;;;;;;5.32;1.30;;;15.50;99.90;;;;;;20647994;28;20043;-41
2022/06/05 00:54:55;;;;;;;6.67;2.37;;;15.30;99.90;;;;;;20645021;28;20053;-41
2022/06/05 01:04:57;;;;;;;3.20;1.25;;;15.30;99.90;;;;;;20644674;28;21016;-41
2022/06/05 01:15:07;;;;;;;3.42;1.15;;;15.20;99.90;;;;;;20644897;28;20050;-41
2022/06/05 01:25:30;;;;;;;4.68;1.10;;;15.10;99.90;;;;;;20636971;28;20039;-41
2022/06/05 01:35:50;;;;;;;2.75;1.17;;;15.00;99.90;;;;;;20649967;28;20426;-41
2022/06/05 01:45:56;;;;;;;2.42;1.10;;;15.00;99.90;;;;;;20654573;28;20038;-41
2022/06/05 01:56:01;;;;;;;2.63;1.65;;;15.00;99.90;;;;;;20651943;28;20058;-41
2022/06/05 02:06:21;;;;;;;3.03;1.08;;;14.90;99.90;;;;;;20656319;28;20521;-41
2022/06/05 02:16:23;;;;;;;2.10;0.98;;;14.90;99.90;;;;;;20649673;28;20495;-41
2022/06/05 02:26:29;;;;;;;;;;;14.90;99.90;;;;;;20659695;28;20133;-41
2022/06/05 02:36:46;;;;;;;4.30;1.80;;;15.00;99.90;;;;;;21360640;23;20028;-81
2022/06/05 02:47:13;;;;;;;2.17;1.20;;;14.90;99.90;;;;;;20737727;28;20290;-81
2022/06/05 02:57:14;;;;;;;2.05;0.95;;;14.90;99.90;;;;;;20728245;28;20305;-81
2022/06/05 03:07:16;;;;;;;2.80;1.13;;;14.90;99.90;;;;;;20705817;28;20034;-81
2022/06/05 03:17:17;;;;;;;2.75;1.02;;;14.90;99.90;;;;;;20722416;28;20395;-81
2022/06/05 03:27:19;;;;;;;3.90;1.60;;;14.80;99.90;;;;;;20720805;28;20121;-82
2022/06/05 03:37:20;;;;;;;3.08;1.08;;;14.80;99.90;;;;;;20725392;28;20058;-82
2022/06/05 03:47:21;;;;;;;2.70;1.20;;;14.70;99.90;;;;;;20732074;28;20033;-82
2022/06/05 03:57:22;;;;;;;4.65;1.70;;;14.50;99.90;;;;;;20747815;28;20034;-82
2022/06/05 04:07:23;;;;;;;3.00;1.25;;;14.50;99.90;;;;;;20743719;28;20118;-82
2022/06/05 04:17:25;;;;;;;2.78;1.15;;;14.40;99.90;;;;;;20762653;28;20064;-81
2022/06/05 04:27:26;;;;;;;2.33;1.13;;;14.40;99.90;;;;;;20750743;28;20048;-81
2022/06/05 04:37:27;;;;;;;5.25;1.63;;;14.40;99.90;;;;;;20766362;28;20129;-81
2022/06/05 04:47:28;;;;;;;4.60;2.00;;;14.30;99.90;;;;;;20770305;28;20034;-81
2022/06/05 04:57:34;;;;;;;2.40;1.20;;;14.30;99.90;;;;;;20827576;28;20048;-81
2022/06/05 05:07:35;;;;;;;3.92;1.30;;;14.30;99.90;;;;;;20835522;28;20044;-81
2022/06/05 05:17:36;;;;;;;5.50;2.58;;;14.30;99.90;;;;;;20838895;28;20043;-81
2022/06/05 05:27:39;;;;;;;4.38;1.63;;;14.30;99.90;;;;;;20812686;28;20060;-81
2022/06/05 05:37:40;;;;;;;6.03;1.52;;;14.30;99.90;;;;;;20834741;28;20043;-81
2022/06/05 05:47:41;;;;;;;3.08;1.23;;;14.30;99.90;;;;;;20813352;28;20029;-81
2022/06/05 05:57:42;;;;;;;2.63;1.38;;;14.30;99.90;;;;;;20802987;28;20388;-81
2022/06/05 06:07:44;;;;;;;5.50;1.50;;;14.40;99.90;;;;;;20809501;28;20040;-81
2022/06/05 06:17:45;;;;;;;4.32;1.88;;;14.40;99.90;;;;;;20813308;28;20052;-81
2022/06/05 06:27:46;;;;;;;4.57;1.42;;;14.40;99.90;;;;;;20829922;28;20057;-81
2022/06/05 06:37:47;;;;;;;5.25;2.22;;;14.40;99.90;;;;;;20802152;28;20069;-81
2022/06/05 06:47:48;;;;;;;3.60;1.58;;;14.50;99.90;;;;;;20822007;28;20049;-81
2022/06/05 06:57:50;;;;;;;4.18;2.08;;;14.60;99.90;;;;;;20808030;28;20037;-81
2022/06/05 07:07:51;;;;;;;5.53;2.33;;;14.80;99.90;;;;;;20793060;28;20040;-81
2022/06/05 07:17:52;;;;;;;2.75;1.30;;;14.90;99.90;;;;;;20815486;28;20045;-81
2022/06/05 07:27:53;;;;;;;3.50;2.20;;;15.00;99.90;;;;;;20812315;28;20059;-82
2022/06/05 07:37:54;;;;;;;3.22;1.50;;;15.30;99.90;;;;;;20844548;28;20424;-81
2022/06/05 07:47:56;;;;;;;4.47;2.30;;;15.40;99.90;;;;;;20829632;28;20049;-81
2022/06/05 07:57:57;;;;;;;3.70;1.80;;;15.80;99.90;;;;;;20823952;28;20044;-81
2022/06/05 08:07:59;;;;;;;3.50;1.75;;;16.40;99.90;;;;;;20816632;28;20128;-81
2022/06/05 08:18:00;;;;;;;3.30;1.40;;;17.10;99.90;;;;;;20831122;28;20050;-81
2022/06/05 08:28:02;;;;;;;3.90;2.08;;;17.60;99.90;;;;;;20813732;28;20043;-82
2022/06/05 08:48:32;;;;;;;3.03;1.75;;;18.50;99.90;;;;;;20826137;28;20439;-82
2022/06/05 08:58:58;;;;;;;4.85;2.67;;;18.90;99.90;;;;;;20787671;28;20357;-82
2022/06/05 09:09:05;;;;;;;9.93;2.17;;;19.30;99.90;;;;;;20771411;28;20409;-81
2022/06/05 09:19:06;;;;;;;3.47;1.57;;;19.50;99.90;;;;;;20756234;28;20045;-82
2022/06/05 09:29:19;;;;;;;3.92;1.63;;;19.60;99.90;;;;;;20756845;28;20030;-82
2022/06/05 09:39:29;;;;;;;3.15;1.40;;;19.70;99.90;;;;;;20759589;28;20403;-81
2022/06/05 09:49:51;;;;;;;3.75;1.63;;;19.80;99.90;;;;;;20774208;28;20439;-82
2022/06/05 10:00:09;;;;;;;5.53;1.90;;;19.90;99.90;;;;;;20752254;28;20046;-82
2022/06/05 10:10:19;;;;;;;3.97;1.65;;;19.90;99.90;;;;;;20825760;28;20530;-82
2022/06/05 10:20:46;;;;;;;3.00;1.58;;;19.90;99.90;;;;;;20813762;28;20403;-82
2022/06/05 10:31:02;;;;;;;3.53;2.05;;;19.90;99.90;;;;;;20735499;28;20294;-82
2022/06/05 10:41:31;;;;;;;3.58;1.75;;;20.10;99.90;;;;;;20730210;28;20060;-82
2022/06/05 10:51:55;;;;;;;2.63;1.45;;;20.30;99.90;;;;;;20739095;28;20043;-81
2022/06/05 11:02:18;;;;;;;5.85;2.13;;;20.50;99.90;;;;;;20811617;28;20067;-81
2022/06/05 11:22:57;;;;;;;3.05;1.55;;;20.70;99.90;;;;;;20849079;28;20045;-82
2022/06/05 11:33:19;;;;;;;3.17;1.55;;;20.70;99.90;;;;;;20845054;28;20059;-82
2022/06/05 11:43:35;;;;;;;3.47;1.75;;;20.70;99.90;;;;;;20838192;28;21188;-82
2022/06/05 11:54:02;;;;;;;3.42;1.83;;;20.50;99.90;;;;;;20833381;28;20639;-81
2022/06/05 12:04:30;;;;;;;3.58;1.52;;;20.40;99.90;;;;;;20774011;28;20331;-82
2022/06/05 12:14:49;;;;;;;3.60;1.83;;;20.30;99.90;;;;;;20757022;28;20487;-82
2022/06/05 12:25:00;;;;;;;3.40;1.80;;;20.20;99.90;;;;;;20783330;28;20276;-81
2022/06/05 12:35:12;;;;;;;2.97;1.73;;;20.00;99.90;;;;;;20756769;28;20100;-81
2022/06/05 12:45:22;;;;;;;3.78;1.30;;;19.90;99.90;;;;;;20766430;28;20030;-82
2022/06/05 12:55:35;;;;;;;4.75;2.03;;;19.70;99.90;;;;;;20759432;28;20064;-82
2022/06/05 13:05:56;;;;;;;3.10;1.25;;;19.60;99.90;;;;;;20752447;28;20493;-82
2022/06/05 13:16:06;;;;;;;4.18;2.47;;;19.50;99.90;;;;;;20743575;28;21088;-82
2022/06/05 13:26:29;;;;;;;3.47;2.33;;;19.50;99.90;;;;;;20755988;28;20449;-81
2022/06/05 13:36:38;;;;;;;3.70;2.25;;;19.50;99.90;;;;;;20786445;28;20385;-86
2022/06/05 13:46:57;;;;;;;4.95;2.38;;;19.40;99.90;;;;;;20815368;28;20756;-86
2022/06/05 13:57:22;;;;;;;6.18;2.90;;;19.20;99.90;;;;;;20732961;28;20053;-80
2022/06/05 14:07:25;;;;;;;4.20;2.40;;;18.80;99.90;;;;;;20720310;28;20531;-80
2022/06/05 14:17:35;;;;;;;7.90;4.70;;;18.40;99.90;;;;;;20711538;28;20055;-80
2022/06/05 14:27:36;;;;;;;4.82;2.70;;;18.30;99.90;;;;;;20741746;28;20037;-83
2022/06/05 14:37:42;;;;;;;6.32;3.65;;;18.20;99.90;;;;;;20695787;28;20611;-82
2022/06/05 14:47:49;;;;;;;5.93;3.60;;;18.20;99.90;;;;;;20757235;28;20048;-81
2022/06/05 14:58:09;;;;;;;7.15;4.05;;;18.20;99.90;;;;;;20715056;28;20346;-81
2022/06/05 15:08:21;;;;;;;5.38;3.22;;;18.10;99.90;;;;;;20728215;28;20046;-82
2022/06/05 15:18:23;;;;;;;6.47;4.40;;;18.10;99.90;;;;;;20733057;28;20049;-82
2022/06/05 15:29:05;;;;;;;7.97;4.05;;;18.00;99.90;;;;;;20738318;28;20076;-82
2022/06/05 15:39:12;;;;;;;5.47;3.72;;;18.10;99.90;;;;;;20731241;28;20867;-84
2022/06/05 15:49:37;;;;;;;7.80;4.40;;;18.00;99.90;;;;;;20703141;28;20037;-83
2022/06/05 15:59:58;;;;;;;6.13;4.65;;;17.90;99.90;;;;;;20753724;28;20522;-83
2022/06/05 16:10:15;;;;;;;8.45;5.18;;;17.80;99.90;;;;;;20790537;28;20378;-84
2022/06/05 16:20:33;;;;;;;7.53;4.00;;;17.70;99.90;;;;;;20710236;28;20045;-82
2022/06/05 16:30:43;;;;;;;12.35;4.35;;;17.70;99.90;;;;;;20736188;28;21267;-83
2022/06/05 16:41:03;;;;;;;10.50;5.93;;;17.60;99.90;;;;;;20718642;28;20050;-83
2022/06/05 16:51:11;;;;;;;7.63;4.20;;;17.40;99.90;;;;;;20740298;28;21123;-82
2022/06/05 17:01:12;;;;;;;7.72;5.07;;;17.30;99.90;;;;;;20753600;28;20193;-82
2022/06/05 17:11:30;;;;;;;10.52;6.35;;;17.30;99.90;;;;;;20797474;28;20128;-83
2022/06/05 17:21:39;;;;;;;8.18;5.35;;;17.30;99.90;;;;;;20830063;28;20519;-83
2022/06/05 17:32:17;;;;;;;13.77;6.20;;;17.20;99.90;;;;;;20806764;28;20041;-83
2022/06/05 17:42:51;;;;;;;8.65;4.38;;;17.10;99.90;;;;;;20805604;28;20052;-81
2022/06/05 17:52:58;;;;;;;12.20;5.22;;;17.00;99.90;;;;;;20817928;28;20314;-81
2022/06/05 18:03:04;;;;;;;7.28;4.75;;;16.90;99.90;;;;;;20804448;28;20440;-82
2022/06/05 18:13:14;;;;;;;10.77;4.90;;;16.90;99.90;;;;;;20782284;28;20045;-80
2022/06/05 18:23:21;;;;;;;11.07;4.50;;;16.80;99.90;;;;;;20821862;28;20037;-80
2022/06/05 18:33:26;;;;;;;8.60;5.20;;;16.70;99.90;;;;;;20824936;28;20061;-80
2022/06/05 18:43:30;;;;;;;8.32;5.05;;;16.70;99.90;;;;;;20798144;28;20512;-80
2022/06/05 18:53:39;;;;;;;9.20;5.05;;;16.70;99.90;;;;;;20733771;28;20099;-81
2022/06/05 19:03:40;;;;;;;13.55;6.57;;;16.70;99.90;;;;;;20763394;28;20505;-80
2022/06/05 19:14:03;;;;;;;12.98;6.72;;;16.60;99.90;;;;;;20754428;28;20068;-81
2022/06/05 19:24:25;;;;;;;13.52;6.07;;;16.60;99.90;;;;;;20745710;28;21315;-80
2022/06/05 19:34:32;;;;;;;9.77;5.70;;;16.60;99.90;;;;;;20710544;28;20057;-80
2022/06/05 19:44:35;;;;;;;;;;;16.50;99.90;;;;;;20718491;28;20268;-80
2022/06/05 19:54:38;;;;;;;7.13;5.15;;;16.50;99.90;;;;;;20738901;28;19925;-80
2022/06/05 20:04:48;;;;;;;9.90;4.70;;;16.40;99.90;;;;;;20735778;28;20041;-80
2022/06/05 20:15:01;;;;;;;8.75;5.00;;;16.40;99.90;;;;;;20738134;28;20046;-81
2022/06/05 20:25:12;;;;;;;7.50;4.65;;;16.40;99.90;;;;;;20723469;28;20038;-82
2022/06/05 20:35:20;;;;;;;4.93;3.80;;;16.40;99.90;;;;;;20743481;28;20046;-82
2022/06/05 20:45:42;;;;;;;7.35;4.18;;;16.20;99.90;;;;;;20790167;28;20037;-83
2022/06/05 20:55:46;;;;;;;8.63;3.55;;;16.20;99.90;;;;;;20733314;28;20072;-83
2022/06/05 21:26:34;;;;;;;11.60;5.60;;;15.90;99.90;;;;;;20723451;28;20046;-83
2022/06/05 21:36:36;;;;;;;9.65;5.28;;;15.80;99.90;;;;;;20730165;28;20049;-83
2022/06/05 21:46:39;;;;;;;9.80;6.00;;;15.80;99.90;;;;;;20730803;28;20049;-83
2022/06/05 21:56:44;;;;;;;9.68;5.10;;;15.80;99.90;;;;;;20749781;28;20041;-83
2022/06/05 22:06:45;;;;;;;15.88;6.93;;;15.80;99.90;;;;;;20777719;28;20033;-83
2022/06/05 22:16:49;;;;;;;12.15;6.30;;;15.60;99.90;;;;;;20782548;28;20045;-83
2022/06/05 22:26:51;;;;;;;13.77;6.53;;;15.60;99.90;;;;;;20736789;28;20480;-83
2022/06/05 22:36:53;;;;;;;14.85;7.22;;;15.50;99.90;;;;;;20730071;28;20052;-83
2022/06/05 22:46:54;;;;;;;12.07;5.93;;;15.40;99.90;;;;;;20703617;28;20037;-82
2022/06/05 22:56:55;;;;;;;12.68;5.43;;;15.40;99.90;;;;;;20726487;28;20056;-83
2022/06/05 23:06:56;;;;;;;10.15;5.10;;;15.30;99.90;;;;;;20710468;28;20187;-82
2022/06/05 23:16:57;;;;;;;9.55;4.47;;;15.10;99.90;;;;;;20709525;28;20045;-82
2022/06/05 23:26:58;;;;;;;15.60;5.15;;;15.10;99.90;;;;;;20730134;28;20512;-82
2022/06/05 23:37:03;;;;;;;11.27;4.93;;;14.90;99.90;;;;;;20745471;28;20441;-83
2022/06/05 23:47:04;;;;;;;12.70;6.28;;;14.80;99.90;;;;;;20803560;28;20240;-83
